Terminal Aerodrome Forecast
Issued by NWS

Current Version | Previous Version | Graphics & Text | Print | Product List | Glossary On
Versions: 1 2 3 4 5 6 7 8 9 10 11 12 13 14 15 16 17 18 19 20 21 22 23 24 25 26 27 28
000
FTUS41 KILN 302049 AAB
TAFLUK
TAF AMD
KLUK 302049Z 3021/0118 24012KT P6SM VCSH SCT035 BKN080
      TEMPO 3021/3022 -SHRA BKN025
     FM302300 26008KT P6SM SCT035
     FM010200 26008KT P6SM BKN035
     FM010300 26008KT P6SM BKN035
     FM011500 25012G20KT P6SM BKN035=

USA.gov is the U.S. government's official web portal to all federal, state and local government web resources and services.